createdAt,value
2018-10-12T00:00:46.373Z,15.80
2018-10-12T00:03:14.032Z,15.80
2018-10-12T00:05:42.252Z,15.90
2018-10-12T00:08:09.895Z,15.90
2018-10-12T00:10:37.462Z,15.90
2018-10-12T00:13:05.340Z,15.80
2018-10-12T00:15:33.090Z,15.70
2018-10-12T00:18:00.748Z,15.70
2018-10-12T00:20:28.670Z,15.70
2018-10-12T00:22:56.372Z,15.70
2018-10-12T00:25:24.008Z,15.60
2018-10-12T00:27:51.758Z,15.60
2018-10-12T00:30:19.383Z,15.50
2018-10-12T00:32:47.086Z,15.50
2018-10-12T00:35:14.766Z,15.40
2018-10-12T00:37:42.563Z,15.40
2018-10-12T00:40:10.242Z,15.30
2018-10-12T00:42:37.885Z,15.20
2018-10-12T00:45:05.634Z,15.20
2018-10-12T00:47:33.313Z,15.20
2018-10-12T00:50:00.906Z,15.10
2018-10-12T00:52:28.496Z,15.00
2018-10-12T00:54:56.282Z,14.90
2018-10-12T00:57:24.079Z,14.80
2018-10-12T00:59:51.790Z,14.80
2018-10-12T01:02:19.467Z,14.80
2018-10-12T01:04:47.067Z,14.80
2018-10-12T01:07:14.779Z,14.80
2018-10-12T01:09:42.435Z,14.80
2018-10-12T01:12:25.090Z,14.80
2018-10-12T01:14:52.871Z,14.70
2018-10-12T01:17:20.539Z,14.70
2018-10-12T01:19:48.135Z,14.70
2018-10-12T01:22:15.856Z,14.60
2018-10-12T01:24:43.520Z,14.50
2018-10-12T01:27:11.208Z,14.50
2018-10-12T01:29:38.856Z,14.40
2018-10-12T01:32:06.530Z,14.40
2018-10-12T01:34:34.199Z,14.40
2018-10-12T01:37:01.810Z,14.40
2018-10-12T01:39:29.518Z,14.40
2018-10-12T01:41:57.354Z,14.30
2018-10-12T01:44:24.986Z,14.40
2018-10-12T01:46:52.629Z,14.30
2018-10-12T01:49:20.219Z,14.30
2018-10-12T01:51:47.869Z,14.20
2018-10-12T01:54:15.542Z,14.10
2018-10-12T01:56:43.214Z,14.10
2018-10-12T01:59:10.914Z,14.00
2018-10-12T02:01:38.566Z,14.00
2018-10-12T02:04:06.280Z,13.90
2018-10-12T02:06:33.975Z,13.90
2018-10-12T02:09:01.618Z,13.80
2018-10-12T02:11:29.269Z,13.70
2018-10-12T02:13:56.926Z,13.70
2018-10-12T02:16:24.579Z,13.60
2018-10-12T02:18:52.196Z,13.60
2018-10-12T02:21:19.853Z,13.50
2018-10-12T02:23:47.662Z,13.50
2018-10-12T02:26:15.315Z,13.40
2018-10-12T02:28:42.965Z,13.40
2018-10-12T02:31:10.648Z,13.30
2018-10-12T02:33:38.342Z,13.30
2018-10-12T02:36:06.440Z,13.30
2018-10-12T02:38:34.164Z,13.20
2018-10-12T02:41:01.881Z,13.10
2018-10-12T02:43:29.629Z,13.10
2018-10-12T02:45:57.358Z,13.00
2018-10-12T02:48:25.033Z,13.00
2018-10-12T02:50:52.771Z,13.00
2018-10-12T02:53:20.467Z,13.00
2018-10-12T02:55:48.141Z,13.00
2018-10-12T02:58:15.808Z,13.00
2018-10-12T03:00:43.510Z,12.90
2018-10-12T03:03:11.153Z,12.80
2018-10-12T03:05:38.817Z,12.70
2018-10-12T03:08:06.444Z,12.70
2018-10-12T03:10:34.082Z,12.70
2018-10-12T03:13:01.702Z,12.60
2018-10-12T03:15:29.357Z,12.60
2018-10-12T03:17:56.956Z,12.60
2018-10-12T03:20:24.617Z,12.50
2018-10-12T03:22:52.265Z,12.50
2018-10-12T03:25:19.907Z,12.50
2018-10-12T03:28:05.206Z,12.50
2018-10-12T03:30:32.897Z,12.40
2018-10-12T03:33:00.591Z,12.40
2018-10-12T03:35:28.335Z,12.40
2018-10-12T03:37:56.024Z,12.40
2018-10-12T03:40:23.673Z,12.40
2018-10-12T03:42:51.362Z,12.40
2018-10-12T03:45:18.963Z,12.40
2018-10-12T03:47:46.711Z,12.50
2018-10-12T03:50:14.399Z,12.60
2018-10-12T03:52:42.048Z,12.60
2018-10-12T03:55:09.715Z,12.70
2018-10-12T03:57:37.500Z,12.70
2018-10-12T04:00:05.167Z,12.70
2018-10-12T04:02:32.844Z,12.60
2018-10-12T04:05:00.577Z,12.60
2018-10-12T04:07:28.256Z,12.60
2018-10-12T04:09:56.003Z,12.50
2018-10-12T04:12:23.702Z,12.40
2018-10-12T04:14:51.413Z,12.50
2018-10-12T04:17:19.094Z,12.40
2018-10-12T04:19:46.751Z,12.40
2018-10-12T04:22:19.004Z,12.30
2018-10-12T04:24:46.809Z,12.30
2018-10-12T04:27:14.454Z,12.20
2018-10-12T04:29:42.132Z,12.20
2018-10-12T04:32:09.957Z,12.20
2018-10-12T04:34:37.650Z,12.20
2018-10-12T04:37:05.710Z,12.10
2018-10-12T04:39:50.002Z,12.10
2018-10-12T04:42:17.650Z,12.10
2018-10-12T04:44:45.310Z,12.00
2018-10-12T04:47:12.984Z,12.00
2018-10-12T04:49:40.769Z,11.90
2018-10-12T04:52:08.552Z,11.90
2018-10-12T04:54:36.172Z,11.90
2018-10-12T04:57:03.859Z,11.90
2018-10-12T04:59:31.571Z,12.00
2018-10-12T05:01:59.241Z,12.00
2018-10-12T05:04:26.910Z,12.00
2018-10-12T05:06:54.659Z,12.00
2018-10-12T05:09:22.349Z,12.00
2018-10-12T05:11:50.071Z,12.00
2018-10-12T05:14:17.736Z,12.00
2018-10-12T05:16:45.403Z,12.10
2018-10-12T05:19:13.113Z,12.10
2018-10-12T05:21:40.731Z,12.00
2018-10-12T05:24:08.391Z,12.00
2018-10-12T05:26:36.091Z,12.00
2018-10-12T05:29:03.853Z,12.10
2018-10-12T05:31:31.497Z,12.10
2018-10-12T05:33:59.220Z,12.10
2018-10-12T05:36:26.803Z,12.10
2018-10-12T05:38:54.433Z,12.10
2018-10-12T05:41:22.062Z,12.10
2018-10-12T05:43:49.790Z,12.20
2018-10-12T05:46:17.336Z,12.20
2018-10-12T05:49:02.619Z,12.20
2018-10-12T05:51:30.241Z,12.20
2018-10-12T05:53:58.124Z,12.20
2018-10-12T05:56:29.199Z,12.20
2018-10-12T05:58:57.719Z,12.30
2018-10-12T06:01:25.492Z,12.40
2018-10-12T06:03:53.135Z,12.50
2018-10-12T06:06:21.210Z,12.50
2018-10-12T06:08:48.932Z,12.60
2018-10-12T06:11:17.208Z,12.70
2018-10-12T06:13:44.982Z,12.70
2018-10-12T06:16:12.873Z,12.80
2018-10-12T06:18:40.596Z,12.90
2018-10-12T06:21:08.290Z,13.00
2018-10-12T06:23:36.108Z,13.10
2018-10-12T06:26:04.539Z,13.10
2018-10-12T06:28:32.212Z,13.20
2018-10-12T06:30:59.973Z,13.30
2018-10-12T06:33:27.656Z,13.50
2018-10-12T06:35:55.297Z,13.50
2018-10-12T06:38:22.940Z,13.60
2018-10-12T06:40:50.666Z,13.70
2018-10-12T06:43:18.332Z,13.90
2018-10-12T06:45:45.920Z,13.90
2018-10-12T06:48:13.526Z,14.00
2018-10-12T06:50:42.160Z,14.10
2018-10-12T06:53:10.343Z,14.30
2018-10-12T06:55:38.020Z,14.40
2018-10-12T06:58:06.383Z,14.50
2018-10-12T07:00:34.126Z,14.60
2018-10-12T07:03:01.842Z,14.70
2018-10-12T07:05:29.486Z,14.80
2018-10-12T07:07:57.270Z,15.00
2018-10-12T07:10:24.912Z,15.00
2018-10-12T07:12:52.575Z,15.10
2018-10-12T07:15:20.437Z,15.30
2018-10-12T07:17:48.052Z,15.30
2018-10-12T07:20:15.680Z,15.40
2018-10-12T07:22:43.519Z,15.70
2018-10-12T07:25:11.276Z,15.80
2018-10-12T07:27:38.993Z,16.00
2018-10-12T07:30:06.715Z,16.00
2018-10-12T07:32:34.563Z,16.10
2018-10-12T07:35:02.229Z,16.20
2018-10-12T07:37:29.948Z,16.30
2018-10-12T07:39:57.827Z,16.40
2018-10-12T07:42:25.612Z,16.60
2018-10-12T07:44:53.207Z,16.60
2018-10-12T07:47:20.844Z,16.60
2018-10-12T07:49:48.470Z,16.70
2018-10-12T07:52:16.106Z,16.90
2018-10-12T07:54:43.841Z,17.00
2018-10-12T07:57:12.524Z,17.20
2018-10-12T07:59:41.264Z,17.30
2018-10-12T08:02:09.675Z,17.40
2018-10-12T08:04:37.767Z,17.40
2018-10-12T08:07:05.650Z,17.50
2018-10-12T08:09:33.321Z,17.60
2018-10-12T08:12:00.929Z,17.70
2018-10-12T08:14:28.567Z,18.00
2018-10-12T08:16:56.179Z,18.20
2018-10-12T08:19:23.895Z,18.30
2018-10-12T08:21:51.586Z,18.50
2018-10-12T08:24:19.283Z,18.50
2018-10-12T08:26:46.988Z,18.60
2018-10-12T08:29:14.737Z,18.80
2018-10-12T08:31:42.468Z,18.80
2018-10-12T08:34:10.119Z,19.10
2018-10-12T08:36:37.904Z,19.20
2018-10-12T08:39:09.271Z,19.20
2018-10-12T08:41:37.140Z,19.40
2018-10-12T08:44:05.067Z,19.60
2018-10-12T08:46:33.100Z,19.90
2018-10-12T08:49:00.959Z,19.90
2018-10-12T08:51:28.566Z,19.70
2018-10-12T08:53:56.228Z,19.80
2018-10-12T08:56:23.883Z,19.90
2018-10-12T08:58:51.599Z,20.00
2018-10-12T09:01:19.210Z,20.10
2018-10-12T09:03:46.878Z,20.10
2018-10-12T09:06:14.962Z,20.10
2018-10-12T09:08:42.654Z,20.30
2018-10-12T09:11:10.312Z,20.40
2018-10-12T09:13:37.958Z,20.60
2018-10-12T09:16:06.019Z,20.50
2018-10-12T09:18:33.734Z,20.50
2018-10-12T09:21:01.756Z,20.60
2018-10-12T09:23:29.401Z,20.70
2018-10-12T09:25:57.082Z,20.70
2018-10-12T09:28:24.787Z,20.70
2018-10-12T09:30:52.804Z,20.80
2018-10-12T09:33:20.493Z,21.00
2018-10-12T09:35:48.215Z,21.00
2018-10-12T09:38:16.091Z,21.20
2018-10-12T09:40:43.693Z,21.40
2018-10-12T09:43:11.327Z,21.30
2018-10-12T09:45:39.109Z,21.40
2018-10-12T09:48:06.923Z,21.50
2018-10-12T09:50:34.637Z,21.50
2018-10-12T09:53:02.468Z,21.70
2018-10-12T09:55:30.131Z,21.70
2018-10-12T09:57:57.756Z,21.90
2018-10-12T10:00:31.152Z,22.00
2018-10-12T10:03:04.661Z,22.10
2018-10-12T10:05:32.477Z,22.20
2018-10-12T10:08:00.232Z,22.30
2018-10-12T10:10:27.900Z,22.20
2018-10-12T10:12:55.494Z,22.30
2018-10-12T10:15:23.761Z,22.50
2018-10-12T10:17:51.360Z,22.70
2018-10-12T10:20:19.055Z,22.60
2018-10-12T10:22:46.841Z,22.70
2018-10-12T10:25:14.553Z,22.80
2018-10-12T10:27:42.374Z,22.80
2018-10-12T10:30:10.196Z,23.00
2018-10-12T10:32:37.928Z,23.20
2018-10-12T10:35:06.140Z,23.30
2018-10-12T10:37:34.174Z,23.40
2018-10-12T10:40:01.878Z,23.50
2018-10-12T10:42:29.594Z,23.30
2018-10-12T10:44:57.294Z,23.40
2018-10-12T10:47:25.118Z,23.50
2018-10-12T10:49:52.857Z,23.40
2018-10-12T10:52:20.584Z,23.30
2018-10-12T10:54:48.246Z,23.40
2018-10-12T10:57:15.954Z,23.30
2018-10-12T10:59:43.743Z,23.00
2018-10-12T11:02:11.478Z,23.00
2018-10-12T11:04:39.184Z,23.20
2018-10-12T11:07:06.883Z,23.60
2018-10-12T11:09:34.577Z,24.10
2018-10-12T11:12:02.269Z,24.90
2018-10-12T11:14:29.878Z,26.00
2018-10-12T11:16:57.614Z,26.90
2018-10-12T11:19:25.369Z,28.00
2018-10-12T11:21:53.093Z,29.20
2018-10-12T11:24:20.785Z,29.90
2018-10-12T11:26:48.535Z,30.90
2018-10-12T11:29:16.261Z,30.80
2018-10-12T11:31:44.115Z,31.10
2018-10-12T11:34:11.772Z,31.50
2018-10-12T11:36:39.458Z,32.70
2018-10-12T11:39:11.401Z,32.50
2018-10-12T11:41:39.080Z,34.20
2018-10-12T11:44:06.823Z,34.70
2018-10-12T11:46:34.511Z,34.20
2018-10-12T11:49:02.173Z,34.40
2018-10-12T11:51:29.896Z,35.20
2018-10-12T11:53:57.561Z,35.50
2018-10-12T11:56:25.369Z,36.00
2018-10-12T11:58:53.079Z,35.30
2018-10-12T12:01:20.800Z,35.90
2018-10-12T12:03:48.475Z,36.10
2018-10-12T12:06:16.175Z,36.00
2018-10-12T12:08:43.826Z,36.70
2018-10-12T12:11:11.448Z,37.50
2018-10-12T12:13:39.112Z,36.70
2018-10-12T12:16:06.890Z,36.60
2018-10-12T12:18:34.593Z,37.20
2018-10-12T12:21:02.295Z,37.00
2018-10-12T12:23:30.050Z,35.60
2018-10-12T12:25:57.744Z,36.30
2018-10-12T12:28:25.583Z,37.60
2018-10-12T12:30:53.648Z,38.40
2018-10-12T12:33:21.338Z,38.10
2018-10-12T12:35:49.364Z,36.50
2018-10-12T12:38:16.823Z,36.30
2018-10-12T12:40:44.610Z,37.10
2018-10-12T12:43:12.777Z,37.50
2018-10-12T12:45:40.482Z,38.40
2018-10-12T12:48:08.388Z,38.90
2018-10-12T12:50:36.092Z,40.10
2018-10-12T12:53:03.805Z,39.40
2018-10-12T12:55:32.337Z,39.30
2018-10-12T12:58:00.596Z,39.80
2018-10-12T13:00:28.350Z,39.40
2018-10-12T13:02:56.032Z,39.80
2018-10-12T13:05:23.784Z,39.00
2018-10-12T13:07:51.468Z,39.60
2018-10-12T13:10:19.257Z,39.50
2018-10-12T13:12:46.936Z,38.90
2018-10-12T13:15:14.681Z,39.20
2018-10-12T13:17:42.420Z,39.80
2018-10-12T13:20:10.152Z,39.00
2018-10-12T13:22:38.433Z,38.80
2018-10-12T13:25:06.222Z,39.20
2018-10-12T13:27:33.884Z,38.60
2018-10-12T13:30:01.660Z,38.70
2018-10-12T13:32:29.925Z,38.70
2018-10-12T13:34:57.732Z,38.70
2018-10-12T13:37:25.588Z,38.50
2018-10-12T13:39:53.335Z,38.70
2018-10-12T13:42:21.146Z,38.90
2018-10-12T13:44:48.856Z,38.10
2018-10-12T13:47:16.491Z,38.10
2018-10-12T13:49:44.197Z,38.40
2018-10-12T13:52:11.883Z,37.60
2018-10-12T13:54:39.580Z,36.10
2018-10-12T13:57:07.362Z,35.80
2018-10-12T13:59:35.055Z,37.50
2018-10-12T14:02:02.785Z,37.40
2018-10-12T14:04:30.735Z,37.90
2018-10-12T14:06:58.417Z,37.80
2018-10-12T14:09:27.075Z,38.20
2018-10-12T14:11:54.766Z,37.60
2018-10-12T14:14:23.564Z,37.70
2018-10-12T14:16:51.324Z,37.40
2018-10-12T14:19:19.402Z,37.00
2018-10-12T14:21:46.821Z,37.40
2018-10-12T14:24:14.611Z,37.40
2018-10-12T14:26:42.335Z,37.70
2018-10-12T14:29:09.977Z,37.00
2018-10-12T14:31:37.729Z,37.70
2018-10-12T14:34:05.827Z,37.50
2018-10-12T14:36:33.676Z,37.80
2018-10-12T14:39:01.396Z,37.90
2018-10-12T14:41:29.160Z,37.20
2018-10-12T14:43:56.875Z,37.30
2018-10-12T14:46:24.491Z,36.90
2018-10-12T14:48:52.454Z,36.30
2018-10-12T14:51:20.199Z,36.90
2018-10-12T14:53:47.846Z,36.30
2018-10-12T14:56:16.070Z,35.90
2018-10-12T14:58:43.876Z,35.50
2018-10-12T15:01:11.933Z,35.80
2018-10-12T15:03:39.600Z,35.20
2018-10-12T15:06:07.340Z,34.50
2018-10-12T15:08:35.111Z,32.90
2018-10-12T15:11:02.718Z,31.40
2018-10-12T15:13:30.402Z,30.20
2018-10-12T15:15:58.097Z,29.20
2018-10-12T15:18:25.926Z,28.40
2018-10-12T15:20:53.663Z,27.70
2018-10-12T15:23:21.325Z,27.30
2018-10-12T15:25:49.173Z,26.90
2018-10-12T15:28:16.841Z,26.60
2018-10-12T15:30:44.619Z,26.30
2018-10-12T15:33:12.386Z,25.90
2018-10-12T15:35:40.081Z,25.30
2018-10-12T15:38:07.769Z,25.00
2018-10-12T15:40:35.745Z,24.70
2018-10-12T15:43:03.561Z,24.60
2018-10-12T15:45:31.254Z,24.40
2018-10-12T15:47:59.019Z,24.20
2018-10-12T15:50:26.840Z,24.00
2018-10-12T15:52:54.694Z,23.80
2018-10-12T15:55:22.571Z,23.60
2018-10-12T15:57:50.349Z,23.40
2018-10-12T16:00:18.120Z,23.30
2018-10-12T16:02:45.891Z,23.20
2018-10-12T16:05:13.665Z,23.00
2018-10-12T16:07:41.529Z,22.90
2018-10-12T16:10:09.543Z,22.80
2018-10-12T16:12:37.238Z,22.70
2018-10-12T16:15:05.265Z,22.50
2018-10-12T16:17:32.966Z,22.20
2018-10-12T16:20:00.676Z,22.00
2018-10-12T16:22:28.407Z,21.80
2018-10-12T16:25:13.429Z,21.60
2018-10-12T16:27:41.172Z,21.50
2018-10-12T16:30:09.007Z,21.30
2018-10-12T16:32:36.764Z,21.20
2018-10-12T16:35:04.808Z,21.10
2018-10-12T16:37:33.053Z,21.00
2018-10-12T16:40:00.736Z,20.90
2018-10-12T16:42:28.510Z,20.80
2018-10-12T16:44:58.358Z,20.70
2018-10-12T16:47:26.086Z,20.60
2018-10-12T16:49:53.852Z,20.50
2018-10-12T16:52:21.714Z,20.50
2018-10-12T16:54:49.452Z,20.40
2018-10-12T16:57:21.728Z,20.30
2018-10-12T16:59:49.697Z,20.20
2018-10-12T17:02:17.405Z,20.00
2018-10-12T17:04:45.168Z,20.00
2018-10-12T17:07:12.829Z,19.90
2018-10-12T17:09:41.127Z,19.80
2018-10-12T17:12:08.818Z,19.70
2018-10-12T17:14:36.770Z,19.60
2018-10-12T17:17:04.505Z,19.60
2018-10-12T17:19:32.415Z,19.50
2018-10-12T17:22:00.161Z,19.30
2018-10-12T17:24:27.941Z,19.20
2018-10-12T17:26:55.703Z,19.10
2018-10-12T17:29:23.433Z,18.90
2018-10-12T17:31:51.095Z,18.90
2018-10-12T17:34:18.809Z,18.80
2018-10-12T17:36:46.742Z,18.80
2018-10-12T17:39:14.580Z,18.70
2018-10-12T17:41:42.378Z,18.60
2018-10-12T17:44:10.215Z,18.60
2018-10-12T17:46:37.900Z,18.60
2018-10-12T17:49:06.653Z,18.50
2018-10-12T17:51:34.392Z,18.50
2018-10-12T17:54:02.099Z,18.30
2018-10-12T17:56:29.774Z,18.20
2018-10-12T17:58:57.642Z,18.10
2018-10-12T18:01:25.304Z,18.10
2018-10-12T18:03:53.156Z,18.00
2018-10-12T18:06:20.922Z,18.00
2018-10-12T18:08:49.022Z,17.80
2018-10-12T18:11:16.690Z,17.60
2018-10-12T18:13:44.357Z,17.40
2018-10-12T18:16:12.050Z,17.40
2018-10-12T18:18:39.815Z,17.20
2018-10-12T18:21:07.544Z,17.20
2018-10-12T18:23:35.482Z,17.10
2018-10-12T18:26:03.337Z,17.10
2018-10-12T18:28:31.005Z,17.10
2018-10-12T18:30:58.777Z,17.00
2018-10-12T18:33:26.445Z,16.90
2018-10-12T18:35:54.210Z,16.80
2018-10-12T18:38:21.901Z,16.70
2018-10-12T18:40:49.587Z,16.70
2018-10-12T18:43:17.353Z,16.70
2018-10-12T18:45:45.175Z,16.70
2018-10-12T18:48:12.917Z,16.60
2018-10-12T18:50:40.796Z,16.60
2018-10-12T18:53:08.550Z,16.60
2018-10-12T18:55:36.363Z,16.60
2018-10-12T18:58:04.277Z,16.70
2018-10-12T19:00:31.970Z,16.70
2018-10-12T19:02:59.948Z,16.70
2018-10-12T19:05:27.700Z,16.70
2018-10-12T19:07:55.631Z,16.70
2018-10-12T19:10:23.517Z,16.70
2018-10-12T19:12:51.240Z,16.70
2018-10-12T19:15:18.937Z,16.60
2018-10-12T19:17:47.571Z,16.50
2018-10-12T19:20:15.563Z,16.50
2018-10-12T19:22:43.378Z,16.50
2018-10-12T19:25:11.178Z,16.40
2018-10-12T19:27:38.992Z,16.40
2018-10-12T19:30:06.854Z,16.40
2018-10-12T19:32:34.595Z,16.30
2018-10-12T19:35:02.487Z,16.20
2018-10-12T19:37:30.329Z,15.90
2018-10-12T19:39:58.234Z,15.70
2018-10-12T19:42:26.203Z,15.70
2018-10-12T19:44:54.129Z,15.80
2018-10-12T19:47:22.477Z,15.70
2018-10-12T19:49:50.202Z,15.60
2018-10-12T19:52:18.078Z,15.50
2018-10-12T19:54:45.969Z,15.50
2018-10-12T19:57:13.769Z,15.50
2018-10-12T19:59:41.935Z,15.50
2018-10-12T20:02:09.735Z,15.40
2018-10-12T20:04:37.486Z,15.30
2018-10-12T20:07:05.394Z,15.30
2018-10-12T20:09:33.117Z,15.30
2018-10-12T20:12:01.837Z,15.30
2018-10-12T20:14:29.638Z,15.20
2018-10-12T20:16:57.386Z,15.10
2018-10-12T20:19:25.433Z,14.90
2018-10-12T20:21:53.366Z,14.90
2018-10-12T20:24:21.546Z,14.90
2018-10-12T20:26:51.022Z,14.80
2018-10-12T20:29:18.898Z,14.90
2018-10-12T20:31:46.788Z,14.80
2018-10-12T20:34:14.774Z,14.70
2018-10-12T20:36:42.535Z,14.70
2018-10-12T20:39:11.536Z,14.70
2018-10-12T20:41:39.599Z,14.70
2018-10-12T20:44:07.668Z,14.70
2018-10-12T20:46:35.450Z,14.60
2018-10-12T20:49:03.206Z,14.50
2018-10-12T20:51:31.018Z,14.50
2018-10-12T20:53:58.740Z,14.50
2018-10-12T20:56:26.452Z,14.30
2018-10-12T20:58:54.117Z,14.40
2018-10-12T21:01:21.926Z,14.30
2018-10-12T21:03:49.657Z,14.30
2018-10-12T21:06:17.356Z,14.30
2018-10-12T21:08:45.086Z,14.40
2018-10-12T21:11:12.750Z,14.30
2018-10-12T21:13:40.433Z,14.30
2018-10-12T21:16:08.461Z,14.30
2018-10-12T21:18:36.110Z,14.30
2018-10-12T21:21:03.868Z,14.10
2018-10-12T21:23:31.585Z,14.00
2018-10-12T21:25:59.260Z,14.00
2018-10-12T21:28:26.961Z,13.90
2018-10-12T21:30:54.656Z,13.90
2018-10-12T21:33:22.349Z,13.90
2018-10-12T21:35:50.010Z,13.90
2018-10-12T21:38:17.669Z,13.90
2018-10-12T21:40:45.300Z,13.90
2018-10-12T21:43:12.919Z,13.80
2018-10-12T21:45:40.655Z,13.80
2018-10-12T21:48:08.275Z,13.80
2018-10-12T21:50:36.019Z,13.80
2018-10-12T21:53:03.791Z,13.70
2018-10-12T21:55:31.456Z,13.60
2018-10-12T21:57:59.148Z,13.70
2018-10-12T22:00:26.985Z,13.60
2018-10-12T22:02:54.680Z,13.60
2018-10-12T22:05:22.400Z,13.70
2018-10-12T22:07:50.043Z,13.70
2018-10-12T22:10:17.664Z,13.70
2018-10-12T22:12:45.310Z,13.70
2018-10-12T22:15:12.985Z,13.80
2018-10-12T22:17:40.578Z,13.80
2018-10-12T22:20:08.218Z,13.80
2018-10-12T22:22:35.897Z,13.80
2018-10-12T22:25:03.646Z,13.80
2018-10-12T22:27:31.286Z,13.80
2018-10-12T22:29:58.962Z,13.80
2018-10-12T22:32:26.589Z,13.80
2018-10-12T22:34:54.286Z,13.80
2018-10-12T22:37:22.004Z,13.70
2018-10-12T22:39:49.693Z,13.70
2018-10-12T22:42:17.340Z,13.80
2018-10-12T22:44:45.024Z,13.80
2018-10-12T22:47:12.765Z,13.70
2018-10-12T22:49:40.397Z,13.70
2018-10-12T22:52:08.082Z,13.70
2018-10-12T22:54:35.879Z,13.70
2018-10-12T22:57:03.553Z,13.70
2018-10-12T22:59:31.195Z,13.60
2018-10-12T23:01:58.837Z,13.40
2018-10-12T23:04:26.499Z,13.30
2018-10-12T23:06:54.274Z,13.20
2018-10-12T23:09:21.910Z,13.20
2018-10-12T23:11:49.543Z,13.30
2018-10-12T23:14:17.195Z,13.30
2018-10-12T23:16:44.869Z,13.40
2018-10-12T23:19:12.544Z,13.30
2018-10-12T23:21:40.269Z,13.20
2018-10-12T23:24:07.910Z,13.00
2018-10-12T23:26:35.620Z,12.90
2018-10-12T23:29:03.281Z,12.90
2018-10-12T23:31:31.027Z,12.90
2018-10-12T23:34:03.524Z,13.00
2018-10-12T23:36:31.401Z,13.10
2018-10-12T23:38:59.430Z,13.10
2018-10-12T23:41:27.427Z,13.20
2018-10-12T23:43:55.468Z,13.30
2018-10-12T23:46:23.468Z,13.30
2018-10-12T23:48:51.142Z,13.30
2018-10-12T23:51:18.918Z,13.40
2018-10-12T23:53:46.567Z,13.40
2018-10-12T23:56:14.247Z,13.50
2018-10-12T23:58:41.935Z,13.50
